Time;durP1;ratioP1;P1;durP2;ratioP2;P2;SDS_P1;SDS_P2;PMS_P1;PMS_P2;Temp;Humidity;BMP_temperature;BMP_pressure;BME280_temperature;BME280_humidity;BME280_pressure;Samples;Min_cycle;Max_cycle;Signal;HPM_P1;HPM_P2
2022/12/24 00:03:19;;;;;;;14.73;9.30;;;12.90;79.10;;;;;;21347824;27;20099;-58
2022/12/24 00:13:22;;;;;;;15.65;10.40;;;12.90;79.20;;;;;;21345241;27;20054;-58
2022/12/24 00:23:25;;;;;;;17.65;10.90;;;12.80;79.50;;;;;;21342990;27;20051;-61
2022/12/24 00:33:27;;;;;;;17.10;10.40;;;12.80;79.90;;;;;;21342797;27;20046;-58
2022/12/24 00:43:29;;;;;;;19.25;11.48;;;12.80;79.90;;;;;;21342187;27;20042;-62
2022/12/24 00:53:31;;;;;;;15.85;11.00;;;12.80;80.10;;;;;;21343231;27;20039;-69
2022/12/24 01:03:36;;;;;;;20.27;11.68;;;12.80;80.20;;;;;;21342596;27;20459;-70
2022/12/24 01:13:38;;;;;;;;;;;12.80;80.60;;;;;;21341774;27;20085;-72
2022/12/24 01:23:41;;;;;;;25.42;14.18;;;12.70;80.60;;;;;;21321443;27;19930;-58
2022/12/24 01:33:44;;;;;;;29.13;15.55;;;12.70;81.20;;;;;;21341512;27;20043;-60
2022/12/24 01:43:46;;;;;;;26.42;14.73;;;12.70;81.30;;;;;;21337186;27;20083;-62
2022/12/24 01:53:56;;;;;;;24.73;14.95;;;12.60;81.40;;;;;;21337721;27;20462;-60
2022/12/24 02:03:59;;;;;;;26.30;15.65;;;12.40;81.50;;;;;;21336939;27;20066;-62
2022/12/24 02:14:01;;;;;;;27.63;16.10;;;12.40;81.70;;;;;;21336378;27;20047;-65
2022/12/24 02:24:28;;;;;;;24.80;16.27;;;12.30;81.70;;;;;;21317694;27;20075;-61
2022/12/24 02:35:06;;;;;;;28.27;16.48;;;12.30;82.00;;;;;;21316775;27;20099;-56
2022/12/24 02:45:27;;;;;;;27.80;17.42;;;12.20;82.20;;;;;;20903789;28;20063;-63
2022/12/24 02:55:45;;;;;;;27.80;17.75;;;12.30;82.20;;;;;;20920772;28;20075;-56
2022/12/24 03:05:56;;;;;;;27.63;17.60;;;12.30;82.10;;;;;;20865146;28;20052;-69
2022/12/24 03:16:11;;;;;;;29.52;17.35;;;12.30;81.80;;;;;;20963486;27;20043;-72
2022/12/24 03:26:22;;;;;;;31.70;18.80;;;12.20;82.00;;;;;;21268581;27;20093;-65
2022/12/24 03:36:29;;;;;;;27.02;17.08;;;12.20;82.10;;;;;;21268686;27;20049;-56
2022/12/24 03:46:32;;;;;;;29.13;16.88;;;12.10;82.30;;;;;;21270736;27;20153;-56
2022/12/24 03:56:35;;;;;;;20.33;13.38;;;12.00;82.50;;;;;;21259515;27;20051;-58
2022/12/24 04:06:38;;;;;;;20.55;12.23;;;12.10;82.40;;;;;;21306132;27;20104;-57
2022/12/24 04:16:59;;;;;;;19.98;11.77;;;12.10;82.10;;;;;;21345087;27;20044;-61
2022/12/24 04:27:14;;;;;;;22.07;11.57;;;12.10;81.80;;;;;;21343785;27;20053;-57
2022/12/24 04:37:24;;;;;;;18.23;11.15;;;12.10;81.50;;;;;;21342881;27;20439;-60
2022/12/24 04:47:29;;;;;;;15.43;9.90;;;12.00;81.40;;;;;;21340922;27;20051;-67
2022/12/24 04:57:34;;;;;;;18.13;11.68;;;12.00;81.40;;;;;;21341238;27;20497;-68
2022/12/24 05:07:37;;;;;;;18.02;10.32;;;12.00;81.20;;;;;;21340413;27;20054;-57
2022/12/24 05:17:39;;;;;;;16.90;9.55;;;12.00;81.50;;;;;;21339324;27;20047;-57
2022/12/24 05:27:42;;;;;;;16.58;9.43;;;12.00;81.40;;;;;;21339248;27;20051;-57
2022/12/24 05:37:45;;;;;;;18.40;9.85;;;12.00;81.40;;;;;;21338578;27;20050;-56
2022/12/24 05:47:46;;;;;;;16.80;9.55;;;11.90;81.20;;;;;;21318576;27;20061;-60
2022/12/24 05:57:48;;;;;;;18.52;10.63;;;11.80;81.50;;;;;;21336377;27;20046;-64
2022/12/24 06:07:50;;;;;;;33.63;20.80;;;11.80;81.50;;;;;;21335150;27;20055;-62
2022/12/24 06:17:52;;;;;;;21.48;15.32;;;11.70;82.00;;;;;;21335785;27;20046;-67
2022/12/24 06:27:54;;;;;;;21.00;14.38;;;11.70;82.20;;;;;;21333558;27;20046;-67
2022/12/24 06:37:56;;;;;;;25.05;15.88;;;11.70;82.50;;;;;;21334200;27;20043;-65
2022/12/24 06:47:59;;;;;;;25.85;17.38;;;11.70;82.60;;;;;;21333484;27;20058;-65
2022/12/24 06:58:00;;;;;;;29.98;18.23;;;11.70;82.70;;;;;;21333792;27;20140;-62
2022/12/24 07:08:02;;;;;;;29.52;18.80;;;11.70;82.70;;;;;;21313871;27;20086;-60
2022/12/24 07:18:03;;;;;;;31.98;19.75;;;11.70;83.00;;;;;;21336410;27;20047;-57
2022/12/24 07:28:03;;;;;;;34.75;20.25;;;11.70;83.00;;;;;;21333228;27;20047;-57
2022/12/24 07:38:04;;;;;;;47.85;30.45;;;11.70;83.30;;;;;;21323484;27;20051;-58
2022/12/24 07:48:05;;;;;;;43.83;22.60;;;11.70;83.40;;;;;;21346427;27;20051;-59
2022/12/24 07:58:06;;;;;;;41.45;20.90;;;11.70;83.70;;;;;;21328034;27;20078;-57
2022/12/24 08:08:07;;;;;;;36.42;20.38;;;11.60;83.90;;;;;;21344560;27;20563;-58
2022/12/24 08:18:10;;;;;;;45.47;23.65;;;11.60;84.10;;;;;;21344303;27;20126;-60
2022/12/24 08:28:14;;;;;;;36.15;19.77;;;11.70;84.00;;;;;;21343232;27;20097;-71
2022/12/24 08:38:16;;;;;;;40.80;22.90;;;11.70;83.80;;;;;;21345780;27;20055;-69
2022/12/24 08:48:18;;;;;;;24.58;15.80;;;11.70;83.30;;;;;;21343610;27;20129;-71
2022/12/24 08:58:20;;;;;;;23.45;14.60;;;11.70;81.90;;;;;;21345432;27;20039;-59
2022/12/24 09:08:21;;;;;;;20.60;12.93;;;11.70;81.60;;;;;;21339699;27;20058;-58
2022/12/24 09:18:24;;;;;;;15.82;10.45;;;11.70;81.50;;;;;;21338570;27;20043;-58
2022/12/24 09:28:25;;;;;;;13.60;9.30;;;11.90;80.50;;;;;;21338805;27;20184;-63
2022/12/24 09:38:27;;;;;;;14.88;9.35;;;11.90;79.20;;;;;;21336704;27;20046;-66
2022/12/24 09:48:31;;;;;;;12.38;9.35;;;12.10;78.20;;;;;;21338751;27;20053;-57
2022/12/24 09:58:38;;;;;;;11.03;6.80;;;12.10;78.90;;;;;;21317793;27;20074;-60
2022/12/24 10:08:42;;;;;;;12.88;9.20;;;12.20;77.40;;;;;;21256166;27;20055;-71
2022/12/24 10:19:13;;;;;;;13.32;8.70;;;12.30;78.00;;;;;;21250244;27;20043;-57
2022/12/24 10:29:22;;;;;;;11.73;8.52;;;12.30;76.90;;;;;;21248891;27;20057;-62
2022/12/24 10:39:25;;;;;;;11.13;7.97;;;12.40;76.20;;;;;;21248062;27;20051;-60
2022/12/24 10:49:44;;;;;;;13.07;9.20;;;12.60;75.30;;;;;;21248524;28;20051;-57
2022/12/24 10:59:52;;;;;;;11.27;7.53;;;12.70;75.10;;;;;;21247720;27;20051;-59
2022/12/24 11:09:58;;;;;;;10.75;7.60;;;12.70;74.40;;;;;;21260214;27;20055;-57
2022/12/24 11:20:02;;;;;;;14.57;8.40;;;12.80;73.60;;;;;;21267569;27;20047;-56
2022/12/24 11:30:15;;;;;;;11.60;8.40;;;12.70;74.60;;;;;;21263465;27;20047;-63
2022/12/24 11:40:22;;;;;;;17.95;11.23;;;12.90;74.50;;;;;;21245662;27;20070;-63
2022/12/24 11:50:34;;;;;;;13.70;8.88;;;13.00;74.10;;;;;;21266445;27;20051;-59
2022/12/24 12:00:38;;;;;;;14.52;9.77;;;13.20;73.20;;;;;;21263080;27;20134;-60
2022/12/24 12:10:42;;;;;;;14.98;10.02;;;13.20;72.60;;;;;;21259744;27;20053;-58
2022/12/24 12:21:02;;;;;;;14.38;10.52;;;13.00;73.60;;;;;;21257620;27;20043;-57
2022/12/24 12:31:27;;;;;;;14.05;10.57;;;13.10;73.60;;;;;;21258020;27;20051;-59
2022/12/24 12:41:47;;;;;;;;;;;13.20;73.60;;;;;;21259310;27;20051;-57
2022/12/24 12:51:57;;;;;;;13.45;9.20;;;13.20;72.70;;;;;;21238283;27;19926;-72
2022/12/24 13:02:35;;;;;;;13.75;9.35;;;13.50;71.90;;;;;;21256313;27;20058;-60
2022/12/24 13:12:45;;;;;;;12.82;9.45;;;13.50;70.90;;;;;;21254808;27;20054;-57
2022/12/24 13:22:55;;;;;;;13.95;10.15;;;13.30;71.70;;;;;;21256167;27;20497;-64
2022/12/24 13:32:57;;;;;;;14.60;11.15;;;13.40;71.70;;;;;;21253990;27;20514;-59
2022/12/24 13:43:03;;;;;;;13.25;10.60;;;13.40;71.40;;;;;;21252902;27;20054;-58
2022/12/24 13:53:17;;;;;;;18.70;11.57;;;13.60;71.40;;;;;;21252376;27;20437;-57
2022/12/24 14:03:32;;;;;;;14.20;11.87;;;13.50;71.50;;;;;;21259925;27;20134;-58
2022/12/24 14:13:39;;;;;;;16.77;11.88;;;13.50;71.20;;;;;;21336096;27;20070;-57
2022/12/24 14:23:48;;;;;;;20.38;12.63;;;13.60;71.50;;;;;;21335019;27;20054;-59
2022/12/24 14:33:50;;;;;;;18.05;12.18;;;13.60;71.10;;;;;;21336976;27;20050;-69
2022/12/24 14:44:04;;;;;;;16.40;11.52;;;13.60;71.50;;;;;;21339548;27;20129;-58
2022/12/24 14:54:17;;;;;;;25.63;16.52;;;13.50;71.70;;;;;;21351678;27;20494;-58
2022/12/24 15:04:22;;;;;;;17.67;12.73;;;13.50;72.00;;;;;;21332512;27;20047;-61
2022/12/24 15:14:26;;;;;;;14.25;11.90;;;13.40;72.00;;;;;;21361563;27;20054;-67
2022/12/24 15:24:32;;;;;;;20.25;13.38;;;13.40;72.40;;;;;;21362567;27;20479;-57
2022/12/24 15:34:42;;;;;;;21.98;12.05;;;13.50;72.00;;;;;;21347942;27;20047;-58
2022/12/24 15:44:57;;;;;;;14.73;11.13;;;13.40;71.80;;;;;;21347099;27;20473;-57
2022/12/24 15:55:00;;;;;;;15.40;10.95;;;13.30;72.30;;;;;;21346517;27;20142;-58
2022/12/24 16:05:40;;;;;;;18.85;12.18;;;13.30;72.40;;;;;;21345342;27;20058;-56
2022/12/24 16:15:48;;;;;;;16.80;11.82;;;13.30;72.00;;;;;;20980834;28;20127;-57
2022/12/24 16:25:51;;;;;;;14.65;11.15;;;13.20;72.30;;;;;;20996328;28;20049;-57
2022/12/24 16:35:54;;;;;;;17.73;11.68;;;13.10;72.50;;;;;;20996038;28;20041;-58
2022/12/24 16:46:02;;;;;;;16.48;11.07;;;12.90;73.00;;;;;;21167211;27;20546;-70
2022/12/24 16:56:04;;;;;;;16.42;11.52;;;12.80;73.30;;;;;;21344163;27;20062;-61
2022/12/24 17:06:06;;;;;;;16.25;10.80;;;12.70;73.80;;;;;;21340578;27;20418;-59
2022/12/24 17:16:11;;;;;;;18.83;12.50;;;12.80;74.00;;;;;;21340794;27;20508;-57
2022/12/24 17:26:13;;;;;;;;;;;12.70;74.30;;;;;;21340161;27;20126;-57
2022/12/24 17:36:15;;;;;;;20.73;13.77;;;12.50;74.30;;;;;;21340978;27;19919;-58
2022/12/24 17:46:22;;;;;;;21.17;15.02;;;12.50;74.70;;;;;;21340564;27;20100;-61
2022/12/24 17:56:24;;;;;;;22.27;15.65;;;12.40;75.10;;;;;;21339023;27;20043;-58
2022/12/24 18:06:26;;;;;;;22.85;14.38;;;12.40;75.20;;;;;;21318389;27;20050;-58
2022/12/24 18:16:35;;;;;;;22.13;16.13;;;12.30;75.30;;;;;;21334263;27;20125;-56
2022/12/24 18:26:37;;;;;;;24.67;16.80;;;12.20;75.60;;;;;;21335093;27;20042;-62
2022/12/24 18:36:38;;;;;;;22.67;15.80;;;12.20;75.90;;;;;;21334448;27;20082;-60
2022/12/24 18:46:41;;;;;;;27.80;18.65;;;12.10;76.20;;;;;;21325395;27;20130;-65
2022/12/24 18:56:43;;;;;;;26.77;18.52;;;12.10;76.40;;;;;;21333649;27;20039;-69
2022/12/24 19:06:44;;;;;;;30.98;18.27;;;12.00;76.50;;;;;;21333427;27;20490;-58
2022/12/24 19:16:46;;;;;;;24.02;18.30;;;12.00;76.80;;;;;;21334505;27;20414;-57
2022/12/24 19:26:47;;;;;;;30.25;20.55;;;12.00;77.00;;;;;;21334464;27;20447;-61
2022/12/24 19:36:49;;;;;;;26.13;18.15;;;11.80;77.30;;;;;;21346497;27;20051;-58
2022/12/24 19:46:51;;;;;;;22.58;16.73;;;11.70;77.60;;;;;;21347210;27;20479;-59
2022/12/24 19:56:53;;;;;;;18.52;14.40;;;11.60;77.80;;;;;;21327996;27;20043;-58
2022/12/24 20:06:54;;;;;;;21.15;14.80;;;11.50;78.00;;;;;;21345567;27;20104;-58
2022/12/24 20:16:56;;;;;;;21.65;15.63;;;11.40;77.80;;;;;;21326904;27;20058;-58
2022/12/24 20:26:58;;;;;;;28.10;17.27;;;11.20;78.10;;;;;;21344905;27;20089;-58
2022/12/24 20:36:59;;;;;;;33.70;23.63;;;11.20;78.10;;;;;;21351611;27;20117;-57
2022/12/24 20:47:01;;;;;;;31.73;21.33;;;11.10;78.50;;;;;;21350753;27;20054;-59
2022/12/24 20:57:03;;;;;;;37.28;26.13;;;11.10;78.50;;;;;;21332899;27;20383;-61
2022/12/24 21:07:05;;;;;;;32.28;22.17;;;10.90;78.70;;;;;;21330999;27;20077;-59
2022/12/24 21:17:07;;;;;;;25.17;15.68;;;10.80;78.90;;;;;;21347785;27;20047;-58
2022/12/24 21:27:08;;;;;;;21.83;14.80;;;10.70;78.80;;;;;;21347439;27;20069;-58
2022/12/24 21:37:10;;;;;;;30.65;18.70;;;10.80;78.60;;;;;;21325098;27;20095;-59
2022/12/24 21:47:12;;;;;;;18.52;12.73;;;10.70;78.60;;;;;;21323209;27;20403;-58
2022/12/24 22:17:58;;;;;;;21.17;13.00;;;10.80;78.60;;;;;;21338544;27;20501;-59
2022/12/24 22:28:00;;;;;;;17.85;12.05;;;10.80;78.70;;;;;;21339223;27;20047;-56
2022/12/24 22:38:03;;;;;;;19.30;13.02;;;10.80;78.90;;;;;;21336829;27;20038;-68
2022/12/24 22:48:05;;;;;;;19.55;13.05;;;10.80;78.80;;;;;;21337189;27;20139;-61
2022/12/24 22:58:07;;;;;;;25.73;16.38;;;10.90;78.70;;;;;;21335915;27;20042;-62
2022/12/24 23:08:11;;;;;;;21.00;14.02;;;11.00;78.50;;;;;;21343260;27;20137;-57
2022/12/24 23:18:13;;;;;;;24.75;16.75;;;10.90;78.60;;;;;;21333375;27;20133;-55
2022/12/24 23:28:14;;;;;;;35.00;23.92;;;10.90;78.80;;;;;;21372153;27;20075;-64
2022/12/24 23:38:16;;;;;;;42.83;26.88;;;11.00;79.10;;;;;;21350158;27;20414;-63
2022/12/24 23:48:20;;;;;;;41.25;26.15;;;11.00;79.70;;;;;;21355335;27;20179;-58
2022/12/24 23:58:21;;;;;;;41.10;25.88;;;11.00;80.20;;;;;;21347876;27;20082;-63
